createdAt,value
2022-09-09T00:00:45.006Z,97419.16
2022-09-09T00:02:46.393Z,97422.44
2022-09-09T00:04:47.770Z,97417.31
2022-09-09T00:06:49.063Z,97420.75
2022-09-09T00:08:50.340Z,97414.81
2022-09-09T00:10:52.304Z,97427.59
2022-09-09T00:12:53.615Z,97418.28
2022-09-09T00:14:55.112Z,97410.53
2022-09-09T00:16:56.518Z,97413.88
2022-09-09T00:18:57.999Z,97409.56
2022-09-09T00:20:59.281Z,97410.25
2022-09-09T00:23:00.578Z,97412.00
2022-09-09T00:25:01.858Z,97406.06
2022-09-09T00:27:03.186Z,97410.34
2022-09-09T00:29:04.479Z,97407.88
2022-09-09T00:31:05.835Z,97406.91
2022-09-09T00:33:09.065Z,97405.22
2022-09-09T00:35:12.159Z,97411.28
2022-09-09T00:37:13.451Z,97411.28
2022-09-09T00:39:14.917Z,97409.50
2022-09-09T00:41:16.194Z,97400.09
2022-09-09T00:43:17.483Z,97408.63
2022-09-09T00:45:18.861Z,97410.38
2022-09-09T00:47:20.127Z,97406.16
2022-09-09T00:49:21.877Z,97402.66
2022-09-09T00:51:24.737Z,97405.22
2022-09-09T00:53:26.076Z,97406.06
2022-09-09T00:55:27.886Z,97408.66
2022-09-09T00:57:29.389Z,97412.13
2022-09-09T00:59:30.723Z,97417.16
2022-09-09T01:01:32.310Z,97420.56
2022-09-09T01:03:33.699Z,97413.75
2022-09-09T01:05:36.043Z,97414.72
2022-09-09T01:07:37.523Z,97410.44
2022-09-09T01:09:38.955Z,97422.38
2022-09-09T01:11:40.287Z,97417.31
2022-09-09T01:13:41.604Z,97420.66
2022-09-09T01:15:43.563Z,97416.28
2022-09-09T01:17:44.840Z,97418.88
2022-09-09T01:19:46.923Z,97423.94
2022-09-09T01:21:48.191Z,97429.16
2022-09-09T01:23:50.139Z,97422.38
2022-09-09T01:25:51.418Z,97428.31
2022-09-09T01:27:52.708Z,97428.25
2022-09-09T01:29:53.965Z,97433.44
2022-09-09T01:31:55.280Z,97427.56
2022-09-09T01:33:56.550Z,97435.25
2022-09-09T01:35:57.874Z,97432.75
2022-09-09T01:37:59.148Z,97432.75
2022-09-09T01:40:00.690Z,97429.34
2022-09-09T01:42:02.011Z,97430.22
2022-09-09T01:44:03.315Z,97436.25
2022-09-09T01:46:04.645Z,97426.88
2022-09-09T01:48:06.010Z,97429.44
2022-09-09T01:50:07.395Z,97432.03
2022-09-09T01:52:09.876Z,97429.47
2022-09-09T01:54:11.380Z,97425.28
2022-09-09T01:56:12.660Z,97424.34
2022-09-09T01:58:14.120Z,97425.19
2022-09-09T02:00:15.395Z,97421.09
2022-09-09T02:02:16.744Z,97422.06
2022-09-09T02:04:18.059Z,97426.41
2022-09-09T02:06:19.331Z,97424.78
2022-09-09T02:08:20.594Z,97424.06
2022-09-09T02:10:21.875Z,97424.13
2022-09-09T02:12:23.355Z,97422.44
2022-09-09T02:14:24.665Z,97419.94
2022-09-09T02:16:26.120Z,97425.84
2022-09-09T02:18:27.473Z,97426.66
2022-09-09T02:20:33.376Z,97381.50
2022-09-09T02:22:36.268Z,97429.22
2022-09-09T02:24:37.634Z,97430.09
2022-09-09T02:26:38.919Z,97428.38
2022-09-09T02:28:40.190Z,97422.44
2022-09-09T02:30:41.793Z,97427.53
2022-09-09T02:32:43.111Z,97426.78
2022-09-09T02:34:44.370Z,97418.25
2022-09-09T02:36:46.586Z,97434.44
2022-09-09T02:38:51.578Z,97430.97
2022-09-09T02:40:52.939Z,97433.31
2022-09-09T02:42:54.214Z,97429.63
2022-09-09T02:44:55.486Z,97427.34
2022-09-09T02:46:56.747Z,97427.75
2022-09-09T02:48:58.053Z,97422.03
2022-09-09T02:50:59.362Z,97426.38
2022-09-09T02:53:00.631Z,97430.16
2022-09-09T02:55:01.925Z,97421.59
2022-09-09T02:57:03.205Z,97425.19
2022-09-09T02:59:04.903Z,97426.19
2022-09-09T03:01:06.287Z,97421.13
2022-09-09T03:03:07.668Z,97394.03
2022-09-09T03:05:08.950Z,97430.25
2022-09-09T03:07:11.006Z,97431.16
2022-09-09T03:09:12.328Z,97437.97
2022-09-09T03:11:15.074Z,97437.19
2022-09-09T03:13:16.399Z,97436.38
2022-09-09T03:15:17.686Z,97437.28
2022-09-09T03:17:19.118Z,97437.31
2022-09-09T03:19:20.448Z,97439.06
2022-09-09T03:21:21.717Z,97445.06
2022-09-09T03:23:23.001Z,97440.84
2022-09-09T03:25:24.933Z,97438.31
2022-09-09T03:27:26.207Z,97440.94
2022-09-09T03:29:27.679Z,97441.81
2022-09-09T03:31:31.257Z,97455.47
2022-09-09T03:33:32.582Z,97454.63
2022-09-09T03:35:33.857Z,97452.13
2022-09-09T03:37:35.127Z,97457.28
2022-09-09T03:39:36.453Z,97450.50
2022-09-09T03:41:38.313Z,97456.50
2022-09-09T03:43:39.627Z,97449.72
2022-09-09T03:45:40.954Z,97450.59
2022-09-09T03:47:42.234Z,97446.38
2022-09-09T03:49:43.510Z,97449.81
2022-09-09T03:51:44.778Z,97443.88
2022-09-09T03:53:46.055Z,97448.16
2022-09-09T03:55:47.483Z,97446.47
2022-09-09T03:57:48.754Z,97447.34
2022-09-09T03:59:50.042Z,97450.78
2022-09-09T04:01:51.630Z,97449.09
2022-09-09T04:03:53.639Z,97455.13
2022-09-09T04:05:54.971Z,97458.53
2022-09-09T04:07:56.218Z,97452.59
2022-09-09T04:09:57.935Z,97461.97
2022-09-09T04:11:59.225Z,97472.16
2022-09-09T04:14:00.506Z,97461.19
2022-09-09T04:16:01.864Z,97462.03
2022-09-09T04:18:03.235Z,97459.50
2022-09-09T04:20:04.596Z,97457.00
2022-09-09T04:22:05.918Z,97460.44
2022-09-09T04:24:07.399Z,97461.28
2022-09-09T04:26:08.735Z,97462.97
2022-09-09T04:28:10.007Z,97458.78
2022-09-09T04:30:11.342Z,97460.50
2022-09-09T04:32:12.624Z,97458.81
2022-09-09T04:34:13.947Z,97469.00
2022-09-09T04:36:15.210Z,97467.38
2022-09-09T04:38:16.498Z,97461.41
2022-09-09T04:40:17.899Z,97467.38
2022-09-09T04:42:20.238Z,97469.94
2022-09-09T04:44:21.531Z,97463.19
2022-09-09T04:46:23.696Z,97479.31
2022-09-09T04:48:26.274Z,97480.22
2022-09-09T04:50:27.547Z,97475.97
2022-09-09T04:52:29.136Z,97474.31
2022-09-09T04:54:30.547Z,97468.38
2022-09-09T04:56:31.826Z,97468.38
2022-09-09T04:58:33.242Z,97472.63
2022-09-09T05:00:34.926Z,97470.09
2022-09-09T05:02:36.314Z,97470.09
2022-09-09T05:04:37.724Z,97471.84
2022-09-09T05:06:39.017Z,97474.41
2022-09-09T05:08:40.291Z,97474.41
2022-09-09T05:10:42.936Z,97477.84
2022-09-09T05:12:44.216Z,97473.56
2022-09-09T05:14:45.487Z,97467.69
2022-09-09T05:16:48.071Z,97480.44
2022-09-09T05:18:49.953Z,97469.38
2022-09-09T05:20:52.008Z,97477.03
2022-09-09T05:22:53.312Z,97473.66
2022-09-09T05:24:54.603Z,97480.53
2022-09-09T05:26:57.207Z,97472.03
2022-09-09T05:29:00.027Z,97477.97
2022-09-09T05:31:05.740Z,97472.91
2022-09-09T05:33:07.722Z,97483.94
2022-09-09T05:35:08.981Z,97473.75
2022-09-09T05:37:10.518Z,97468.63
2022-09-09T05:39:13.024Z,97476.25
2022-09-09T05:41:16.572Z,97474.63
2022-09-09T05:43:17.866Z,97478.00
2022-09-09T05:45:19.178Z,97480.59
2022-09-09T05:47:20.446Z,97482.28
2022-09-09T05:49:22.475Z,97478.91
2022-09-09T05:51:25.087Z,97481.44
2022-09-09T05:53:26.370Z,97484.84
2022-09-09T05:55:27.643Z,97482.31
2022-09-09T05:57:28.931Z,97484.88
2022-09-09T05:59:30.266Z,97487.41
2022-09-09T06:01:31.623Z,97484.03
2022-09-09T06:03:32.944Z,97484.88
2022-09-09T06:05:35.547Z,97490.81
2022-09-09T06:07:36.854Z,97485.75
2022-09-09T06:09:38.131Z,97490.03
2022-09-09T06:11:39.424Z,97490.84
2022-09-09T06:13:40.835Z,97498.50
2022-09-09T06:15:42.106Z,97491.69
2022-09-09T06:17:44.179Z,97492.59
2022-09-09T06:19:45.451Z,97495.94
2022-09-09T06:21:48.554Z,97496.84
2022-09-09T06:23:49.870Z,97495.94
2022-09-09T06:25:52.015Z,97492.59
2022-09-09T06:27:53.286Z,97496.78
2022-09-09T06:29:54.558Z,97492.59
2022-09-09T06:31:56.078Z,97494.22
2022-09-09T06:33:57.359Z,97507.00
2022-09-09T06:35:59.127Z,97499.34
2022-09-09T06:38:00.417Z,97502.72
2022-09-09T06:40:01.836Z,97507.91
2022-09-09T06:42:03.430Z,97501.94
2022-09-09T06:44:04.746Z,97505.38
2022-09-09T06:46:06.518Z,97510.44
2022-09-09T06:48:07.807Z,97512.16
2022-09-09T06:50:09.342Z,97512.16
2022-09-09T06:52:10.695Z,97503.66
2022-09-09T06:54:12.206Z,97506.22
2022-09-09T06:56:17.809Z,97501.88
2022-09-09T06:58:19.306Z,97503.66
2022-09-09T07:00:20.614Z,97508.69
2022-09-09T07:02:22.717Z,97506.22
2022-09-09T07:04:24.250Z,97504.50
2022-09-09T07:06:25.564Z,97503.59
2022-09-09T07:08:27.584Z,97491.75
2022-09-09T07:10:28.858Z,97358.31
2022-09-09T07:12:30.118Z,97497.78
2022-09-09T07:14:31.378Z,97499.44
2022-09-09T07:16:34.519Z,97506.28
2022-09-09T07:18:36.059Z,97514.72
2022-09-09T07:20:37.466Z,97509.69
2022-09-09T07:22:38.755Z,97508.00
2022-09-09T07:24:40.019Z,97513.09
2022-09-09T07:26:41.348Z,97508.84
2022-09-09T07:28:42.635Z,97503.75
2022-09-09T07:30:43.974Z,97499.53
2022-09-09T07:32:45.260Z,97507.19
2022-09-09T07:34:48.000Z,97498.69
2022-09-09T07:36:49.866Z,97502.97
2022-09-09T07:38:52.243Z,97505.50
2022-09-09T07:40:53.504Z,97511.47
2022-09-09T07:42:54.761Z,97508.91
2022-09-09T07:44:56.058Z,97511.41
2022-09-09T07:46:57.521Z,97512.16
2022-09-09T07:48:59.641Z,97515.47
2022-09-09T07:51:01.452Z,97521.28
2022-09-09T07:53:03.533Z,97526.28
2022-09-09T07:55:05.563Z,97520.25
2022-09-09T07:57:06.866Z,97514.22
2022-09-09T07:59:08.349Z,97518.34
2022-09-09T08:01:09.646Z,97515.78
2022-09-09T08:03:10.966Z,97518.31
2022-09-09T08:05:12.559Z,97516.56
2022-09-09T08:07:14.335Z,97512.22
2022-09-09T08:09:15.602Z,97508.72
2022-09-09T08:11:16.923Z,97514.63
2022-09-09T08:13:19.128Z,97516.25
2022-09-09T08:15:20.444Z,97521.28
2022-09-09T08:17:21.747Z,97515.38
2022-09-09T08:19:23.658Z,97520.34
2022-09-09T08:21:25.035Z,97511.81
2022-09-09T08:23:26.875Z,97511.78
2022-09-09T08:25:28.192Z,97508.34
2022-09-09T08:27:29.469Z,97505.78
2022-09-09T08:29:30.781Z,97507.47
2022-09-09T08:31:32.087Z,97513.38
2022-09-09T08:33:34.395Z,97514.16
2022-09-09T08:35:35.721Z,97515.03
2022-09-09T08:37:37.030Z,97517.78
2022-09-09T08:39:38.406Z,97520.50
2022-09-09T08:41:40.798Z,97513.63
2022-09-09T08:43:43.028Z,97518.53
2022-09-09T08:45:44.307Z,97522.72
2022-09-09T08:47:48.172Z,97520.09
2022-09-09T08:49:50.803Z,97529.44
2022-09-09T08:51:52.062Z,97524.41
2022-09-09T08:53:57.731Z,97525.28
2022-09-09T08:56:00.502Z,97525.19
2022-09-09T08:58:02.440Z,97523.38
2022-09-09T09:00:03.751Z,97519.84
2022-09-09T09:02:05.109Z,97524.03
2022-09-09T09:04:06.390Z,97517.16
2022-09-09T09:06:07.779Z,97529.16
2022-09-09T09:08:09.065Z,97521.47
2022-09-09T09:10:30.584Z,97520.56
2022-09-09T09:12:31.676Z,97518.84
2022-09-09T09:14:35.181Z,97517.06
2022-09-09T09:16:37.582Z,97524.66
2022-09-09T09:18:38.901Z,97520.41
2022-09-09T09:20:40.155Z,97516.06
2022-09-09T09:22:41.439Z,97511.81
2022-09-09T09:24:43.420Z,97510.03
2022-09-09T09:26:45.029Z,97496.38
2022-09-09T09:28:46.383Z,97508.22
2022-09-09T09:30:47.713Z,97509.94
2022-09-09T09:32:49.006Z,97512.50
2022-09-09T09:34:50.303Z,97517.84
2022-09-09T09:36:51.602Z,97511.03
2022-09-09T09:41:14.119Z,97514.31
2022-09-09T09:43:15.399Z,97508.31
2022-09-09T09:45:17.695Z,97504.88
2022-09-09T09:47:19.064Z,97509.94
2022-09-09T09:49:20.347Z,97515.03
2022-09-09T09:51:21.630Z,97513.53
2022-09-09T09:53:22.959Z,97511.91
2022-09-09T09:55:25.167Z,97519.63
2022-09-09T09:57:26.470Z,97515.38
2022-09-09T09:59:39.285Z,97514.44
2022-09-09T10:01:41.526Z,97505.06
2022-09-09T10:03:42.843Z,97511.81
2022-09-09T10:05:44.132Z,97509.22
2022-09-09T10:07:46.221Z,97511.97
2022-09-09T10:09:47.524Z,97513.00
2022-09-09T10:11:49.246Z,97509.72
2022-09-09T10:13:50.594Z,97517.44
2022-09-09T10:15:52.246Z,97504.78
2022-09-09T10:17:53.626Z,97503.09
2022-09-09T10:19:56.179Z,97510.81
2022-09-09T10:21:58.739Z,97500.59
2022-09-09T10:24:00.146Z,97504.03
2022-09-09T10:26:01.719Z,97502.38
2022-09-09T10:28:06.182Z,97504.91
2022-09-09T10:30:11.031Z,97504.09
2022-09-09T10:32:12.394Z,97513.50
2022-09-09T10:34:14.390Z,97506.56
2022-09-09T10:36:15.696Z,97511.75
2022-09-09T10:38:17.028Z,97515.22
2022-09-09T10:40:19.229Z,97521.25
2022-09-09T10:42:20.511Z,97507.47
2022-09-09T10:44:21.823Z,97518.56
2022-09-09T10:46:23.710Z,97522.81
2022-09-09T10:48:27.338Z,97519.34
2022-09-09T10:50:57.191Z,97521.81
2022-09-09T10:52:49.927Z,97510.63
2022-09-09T10:54:51.244Z,97504.72
2022-09-09T10:56:54.439Z,97514.03
2022-09-09T10:58:55.703Z,97512.34
2022-09-09T11:00:58.290Z,97508.06
2022-09-09T11:02:59.644Z,97505.47
2022-09-09T11:05:00.915Z,97505.53
2022-09-09T11:07:07.467Z,97506.47
2022-09-09T11:09:12.331Z,97500.59
2022-09-09T11:11:13.651Z,97502.31
2022-09-09T11:13:16.787Z,97504.84
2022-09-09T11:15:18.075Z,97509.81
2022-09-09T11:17:19.404Z,97508.09
2022-09-09T11:19:22.270Z,97508.94
2022-09-09T11:21:23.582Z,97512.28
2022-09-09T11:23:24.871Z,97505.47
2022-09-09T11:25:26.147Z,97510.66
2022-09-09T11:27:27.471Z,97509.00
2022-09-09T11:29:29.427Z,97509.97
2022-09-09T11:31:32.124Z,97503.22
2022-09-09T11:33:33.434Z,97499.72
2022-09-09T11:35:35.489Z,97505.63
2022-09-09T11:37:39.095Z,97497.84
2022-09-09T11:39:40.777Z,97498.72
2022-09-09T11:41:42.635Z,97493.56
2022-09-09T11:43:43.965Z,97494.50
2022-09-09T11:45:45.343Z,97488.59
2022-09-09T11:47:46.662Z,97487.88
2022-09-09T11:49:48.260Z,97494.72
2022-09-09T11:51:50.624Z,97490.53
2022-09-09T11:53:51.946Z,97491.47
2022-09-09T11:55:54.503Z,97498.09
2022-09-09T11:57:55.767Z,97486.06
2022-09-09T11:59:57.555Z,97492.94
2022-09-09T12:01:58.868Z,97491.31
2022-09-09T12:04:00.236Z,97488.78
2022-09-09T12:06:01.629Z,97488.78
2022-09-09T12:08:04.514Z,97492.25
2022-09-09T12:10:05.859Z,97491.31
2022-09-09T12:12:07.260Z,97487.78
2022-09-09T12:14:08.979Z,97494.50
2022-09-09T12:16:10.311Z,97488.56
2022-09-09T12:18:11.615Z,97494.56
2022-09-09T12:20:12.931Z,97492.28
2022-09-09T12:22:15.465Z,97491.09
2022-09-09T12:24:17.294Z,97483.94
2022-09-09T12:26:18.647Z,97481.22
2022-09-09T12:28:19.975Z,97475.75
2022-09-09T12:30:22.583Z,97471.41
2022-09-09T12:32:23.871Z,97472.56
2022-09-09T12:34:26.391Z,97470.28
2022-09-09T12:36:27.719Z,97462.06
2022-09-09T12:38:29.615Z,97466.44
2022-09-09T12:40:30.951Z,97466.66
2022-09-09T12:42:37.891Z,97469.31
2022-09-09T12:44:43.414Z,97460.75
2022-09-09T12:46:44.698Z,97456.69
2022-09-09T12:48:46.751Z,97449.91
2022-09-09T12:50:48.104Z,97442.56
2022-09-09T12:52:49.386Z,97441.53
2022-09-09T12:54:52.955Z,97443.47
2022-09-09T12:56:54.268Z,97443.47
2022-09-09T12:58:55.555Z,97431.78
2022-09-09T13:01:00.806Z,97433.44
2022-09-09T13:03:02.162Z,97426.28
2022-09-09T13:05:03.522Z,97424.34
2022-09-09T13:07:05.223Z,97415.19
2022-09-09T13:09:06.606Z,97419.34
2022-09-09T13:11:07.938Z,97417.69
2022-09-09T13:13:10.679Z,97415.34
2022-09-09T13:15:11.955Z,97417.16
2022-09-09T13:17:13.242Z,97412.69
2022-09-09T13:19:14.523Z,97437.63
2022-09-09T13:21:16.182Z,97420.69
2022-09-09T13:23:18.126Z,97433.28
2022-09-09T13:25:19.611Z,97434.59
2022-09-09T13:27:21.432Z,97430.69
2022-09-09T13:29:22.850Z,97432.06
2022-09-09T13:31:24.356Z,97427.75
2022-09-09T13:33:25.682Z,97423.41
2022-09-09T13:35:27.211Z,97419.16
2022-09-09T13:37:28.638Z,97430.78
2022-09-09T13:39:29.923Z,97430.69
2022-09-09T13:41:31.538Z,97427.66
2022-09-09T13:43:32.942Z,97427.88
2022-09-09T13:45:35.993Z,97438.41
2022-09-09T13:47:37.304Z,97419.88
2022-09-09T13:49:38.622Z,97435.72
2022-09-09T13:51:39.903Z,97436.22
2022-09-09T13:53:41.180Z,97430.56
2022-09-09T13:55:42.466Z,97430.72
2022-09-09T13:57:44.944Z,97421.78
2022-09-09T14:00:04.970Z,97429.19
2022-09-09T14:02:06.930Z,97433.06
2022-09-09T14:04:08.238Z,97425.59
2022-09-09T14:06:09.510Z,97424.81
2022-09-09T14:08:10.805Z,97426.03
2022-09-09T14:10:12.139Z,97429.53
2022-09-09T14:12:13.429Z,97427.78
2022-09-09T14:14:14.747Z,97425.69
2022-09-09T14:16:16.083Z,97434.44
2022-09-09T14:18:17.407Z,97419.72
2022-09-09T14:20:20.169Z,97418.41
2022-09-09T14:22:21.494Z,97410.53
2022-09-09T14:24:22.757Z,97413.91
2022-09-09T14:26:24.555Z,97407.19
2022-09-09T14:28:51.910Z,97398.00
2022-09-09T14:30:47.879Z,97392.75
2022-09-09T14:32:49.185Z,97397.16
2022-09-09T14:34:50.712Z,97394.34
2022-09-09T14:36:52.259Z,97401.31
2022-09-09T14:38:53.586Z,97397.66
2022-09-09T14:40:54.911Z,97394.78
2022-09-09T14:42:57.435Z,97398.97
2022-09-09T14:44:58.714Z,97388.78
2022-09-09T14:47:00.045Z,97393.69
2022-09-09T14:49:01.385Z,97393.94
2022-09-09T14:51:02.777Z,97396.88
2022-09-09T14:53:04.051Z,97388.09
2022-09-09T14:55:05.331Z,97407.38
2022-09-09T14:57:06.603Z,97385.16
2022-09-09T14:59:07.878Z,97392.81
2022-09-09T15:01:10.929Z,97388.22
2022-09-09T15:03:12.312Z,97391.53
2022-09-09T15:05:13.652Z,97288.69
2022-09-09T15:07:14.922Z,97405.88
2022-09-09T15:09:16.283Z,97403.19
2022-09-09T15:11:17.564Z,97404.75
2022-09-09T15:13:18.891Z,97403.91
2022-09-09T15:15:20.183Z,97415.84
2022-09-09T15:17:21.574Z,97413.19
2022-09-09T15:19:23.935Z,97411.41
2022-09-09T15:21:25.249Z,97411.13
2022-09-09T15:23:26.515Z,97406.25
2022-09-09T15:25:27.919Z,97408.41
2022-09-09T15:27:30.006Z,97395.03
2022-09-09T15:29:31.278Z,97393.72
2022-09-09T15:31:32.880Z,97383.56
2022-09-09T15:33:34.450Z,97374.88
2022-09-09T15:35:35.766Z,97383.81
2022-09-09T15:37:37.083Z,97396.81
2022-09-09T15:39:39.059Z,97401.78
2022-09-09T15:41:40.435Z,97412.03
2022-09-09T15:43:41.736Z,97405.31
2022-09-09T15:45:43.064Z,97417.47
2022-09-09T15:47:44.650Z,97421.91
2022-09-09T15:49:46.002Z,97434.84
2022-09-09T15:51:47.287Z,97429.72
2022-09-09T15:53:48.592Z,97439.16
2022-09-09T15:55:54.315Z,97430.38
2022-09-09T15:57:56.079Z,97304.16
2022-09-09T15:59:57.387Z,97430.41
2022-09-09T16:02:00.861Z,97433.56
2022-09-09T16:04:02.299Z,97429.44
2022-09-09T16:06:03.611Z,97429.56
2022-09-09T16:08:05.050Z,97427.94
2022-09-09T16:10:06.905Z,97417.69
2022-09-09T16:12:10.639Z,97410.91
2022-09-09T16:20:17.095Z,97435.78
2022-09-09T16:22:19.109Z,97436.69
2022-09-09T16:24:20.383Z,97445.13
2022-09-09T16:26:21.830Z,97451.13
2022-09-09T16:28:23.378Z,97460.59
2022-09-09T16:30:24.639Z,97463.16
2022-09-09T16:32:25.935Z,97460.59
2022-09-09T16:34:27.208Z,97466.59
2022-09-09T16:36:28.513Z,97468.28
2022-09-09T16:38:31.051Z,97471.69
2022-09-09T16:40:32.379Z,97485.31
2022-09-09T16:42:38.823Z,97486.25
2022-09-09T16:44:40.828Z,97482.88
2022-09-09T16:46:42.671Z,97496.53
2022-09-09T16:48:47.011Z,97502.50
2022-09-09T16:50:49.079Z,97497.44
2022-09-09T16:52:50.364Z,97504.22
2022-09-09T16:54:51.636Z,97500.81
2022-09-09T16:56:52.961Z,97496.53
2022-09-09T16:58:56.567Z,97495.56
2022-09-09T17:00:57.834Z,97498.22
2022-09-09T17:02:59.879Z,97500.13
2022-09-09T17:05:01.183Z,97502.81
2022-09-09T17:07:03.063Z,97503.00
2022-09-09T17:09:04.429Z,97505.72
2022-09-09T17:11:05.752Z,97500.81
2022-09-09T17:13:07.199Z,97486.47
2022-09-09T17:15:08.531Z,97479.78
2022-09-09T17:17:30.619Z,97488.41
2022-09-09T17:19:31.118Z,97495.34
2022-09-09T17:21:32.390Z,97488.56
2022-09-09T17:23:33.903Z,97485.28
2022-09-09T17:25:35.247Z,97485.34
2022-09-09T17:27:36.541Z,97486.22
2022-09-09T17:29:37.821Z,97480.38
2022-09-09T17:31:39.296Z,97479.66
2022-09-09T17:33:40.646Z,97468.59
2022-09-09T17:35:41.922Z,97473.81
2022-09-09T17:37:43.228Z,97480.56
2022-09-09T17:39:44.533Z,97490.09
2022-09-09T17:41:46.495Z,97481.66
2022-09-09T17:43:47.799Z,97487.59
2022-09-09T17:45:50.554Z,97480.00
2022-09-09T17:47:51.858Z,97488.16
2022-09-09T17:49:53.156Z,97494.19
2022-09-09T17:51:55.432Z,97492.44
2022-09-09T17:53:56.735Z,97499.09
2022-09-09T17:55:58.099Z,97493.78
2022-09-09T17:58:00.138Z,97497.00
2022-09-09T18:00:01.410Z,97505.50
2022-09-09T18:02:05.461Z,97370.25
2022-09-09T18:04:08.024Z,97507.22
2022-09-09T18:06:09.303Z,97501.22
2022-09-09T18:08:10.632Z,97502.00
2022-09-09T18:10:12.178Z,97501.00
2022-09-09T18:12:13.629Z,97499.06
2022-09-09T18:14:15.685Z,97510.81
2022-09-09T18:16:18.639Z,97503.97
2022-09-09T18:18:20.089Z,97500.56
2022-09-09T18:20:22.277Z,97507.38
2022-09-09T18:22:23.585Z,97509.00
2022-09-09T18:24:25.527Z,97508.03
2022-09-09T18:26:27.503Z,97504.56
2022-09-09T18:28:28.862Z,97504.28
2022-09-09T18:30:31.108Z,97509.47
2022-09-09T18:32:32.407Z,97509.41
2022-09-09T18:34:33.681Z,97514.59
2022-09-09T18:36:34.998Z,97518.75
2022-09-09T18:38:37.281Z,97513.00
2022-09-09T18:40:38.811Z,97519.38
2022-09-09T18:42:40.090Z,97528.09
2022-09-09T18:44:43.221Z,97525.31
2022-09-09T18:46:44.515Z,97528.53
2022-09-09T18:48:45.857Z,97523.31
2022-09-09T18:50:47.127Z,97520.84
2022-09-09T18:52:49.439Z,97516.72
2022-09-09T18:54:51.135Z,97260.59
2022-09-09T18:56:53.239Z,97511.19
2022-09-09T18:58:55.835Z,97514.28
2022-09-09T19:00:57.234Z,97504.84
2022-09-09T19:02:58.583Z,97521.63
2022-09-09T19:04:59.895Z,97519.06
2022-09-09T19:07:01.242Z,97514.28
2022-09-09T19:09:04.142Z,97510.97
2022-09-09T19:11:06.385Z,97522.06
2022-09-09T19:13:10.252Z,97522.22
2022-09-09T19:15:11.602Z,97517.47
2022-09-09T19:17:13.320Z,97518.78
2022-09-09T19:19:14.692Z,97526.91
2022-09-09T19:21:19.981Z,97527.69
2022-09-09T19:23:21.463Z,97534.22
2022-09-09T19:25:22.922Z,97537.41
2022-09-09T19:27:24.207Z,97543.31
2022-09-09T19:29:25.639Z,97546.72
2022-09-09T19:31:28.125Z,97542.50
2022-09-09T19:33:29.464Z,97553.56
2022-09-09T19:35:31.685Z,97552.66
2022-09-09T19:37:33.015Z,97550.50
2022-09-09T19:39:34.484Z,97559.69
2022-09-09T19:41:36.652Z,97533.75
2022-09-09T19:43:37.962Z,97535.66
2022-09-09T19:45:43.976Z,97537.00
2022-09-09T19:47:48.360Z,97533.31
2022-09-09T19:49:50.482Z,97538.72
2022-09-09T19:51:52.417Z,97540.94
2022-09-09T19:53:57.903Z,97536.47
2022-09-09T19:55:59.223Z,97543.72
2022-09-09T19:58:00.515Z,97546.63
2022-09-09T20:00:02.549Z,97539.69
2022-09-09T20:02:03.920Z,97547.44
2022-09-09T20:04:07.606Z,97556.13
2022-09-09T20:06:08.951Z,97556.31
2022-09-09T20:08:10.240Z,97553.78
2022-09-09T20:10:11.931Z,97548.66
2022-09-09T20:12:13.237Z,97546.91
2022-09-09T20:14:14.871Z,97555.00
2022-09-09T20:16:16.197Z,97546.50
2022-09-09T20:18:17.498Z,97544.63
2022-09-09T20:20:19.741Z,97547.28
2022-09-09T20:22:21.035Z,97429.66
2022-09-09T20:24:25.126Z,97545.53
2022-09-09T20:26:26.566Z,97549.81
2022-09-09T20:28:28.911Z,97544.16
2022-09-09T20:30:30.926Z,97544.72
2022-09-09T20:32:32.252Z,97549.75
2022-09-09T20:34:33.599Z,97543.19
2022-09-09T20:36:35.486Z,97554.16
2022-09-09T20:38:38.229Z,97550.22
2022-09-09T20:40:39.881Z,97538.28
2022-09-09T20:42:41.207Z,97533.06
2022-09-09T20:44:42.487Z,97537.34
2022-09-09T20:46:43.812Z,97532.66
2022-09-09T20:48:45.163Z,97536.34
2022-09-09T20:50:46.428Z,97527.94
2022-09-09T20:52:48.718Z,97528.66
2022-09-09T20:54:51.319Z,97524.50
2022-09-09T20:56:52.675Z,97524.13
2022-09-09T20:58:53.998Z,97529.88
2022-09-09T21:00:59.922Z,97530.16
2022-09-09T21:03:02.319Z,97526.69
2022-09-09T21:05:03.654Z,97530.53
2022-09-09T21:07:07.455Z,97522.38
2022-09-09T21:09:08.902Z,97532.19
2022-09-09T21:11:10.193Z,97524.75
2022-09-09T21:13:11.510Z,97530.13
2022-09-09T21:15:12.771Z,97526.81
2022-09-09T21:17:14.071Z,97535.81
2022-09-09T21:19:15.369Z,97536.06
2022-09-09T21:21:16.631Z,97525.84
2022-09-09T21:23:18.134Z,97535.75
2022-09-09T21:25:19.402Z,97529.91
2022-09-09T21:27:21.222Z,97534.50
2022-09-09T21:29:24.098Z,97533.81
2022-09-09T21:31:28.278Z,97531.13
2022-09-09T21:33:29.850Z,97532.19
2022-09-09T21:35:31.123Z,97526.69
2022-09-09T21:37:32.623Z,97528.28
2022-09-09T21:39:33.970Z,97527.47
2022-09-09T21:41:36.487Z,97522.59
2022-09-09T21:43:37.794Z,97533.84
2022-09-09T21:45:39.074Z,97524.91
2022-09-09T21:47:40.342Z,97528.06
2022-09-09T21:49:41.633Z,97528.03
2022-09-09T21:51:42.919Z,97522.59
2022-09-09T21:53:44.183Z,97529.22
2022-09-09T21:55:47.371Z,97529.91
2022-09-09T21:57:50.376Z,97532.44
2022-09-09T21:59:52.893Z,97524.03
2022-09-09T22:01:54.826Z,97522.34
2022-09-09T22:03:56.218Z,97522.50
2022-09-09T22:05:58.577Z,97508.66
2022-09-09T22:07:59.873Z,97514.94
2022-09-09T22:10:01.379Z,97512.25
2022-09-09T22:12:02.704Z,97521.81
2022-09-09T22:14:04.006Z,97515.69
2022-09-09T22:16:05.475Z,97515.50
2022-09-09T22:18:06.782Z,97515.44
2022-09-09T22:20:08.074Z,97506.44
2022-09-09T22:22:09.494Z,97512.63
2022-09-09T22:24:11.982Z,97513.53
2022-09-09T22:26:13.279Z,97514.97
2022-09-09T22:28:14.952Z,97518.59
2022-09-09T22:30:16.218Z,97518.56
2022-09-09T22:32:17.539Z,97516.03
2022-09-09T22:34:20.994Z,97516.69
2022-09-09T22:36:22.326Z,97515.94
2022-09-09T22:38:23.697Z,97509.28
2022-09-09T22:40:25.021Z,97503.75
2022-09-09T22:42:26.355Z,97503.50
2022-09-09T22:44:27.648Z,97505.84
2022-09-09T22:46:29.170Z,97511.81
2022-09-09T22:48:30.533Z,97510.66
2022-09-09T22:50:31.822Z,97505.09
2022-09-09T22:52:33.754Z,97499.38
2022-09-09T22:54:35.058Z,97488.03
2022-09-09T22:56:36.564Z,97480.31
2022-09-09T22:58:37.970Z,97474.25
2022-09-09T23:00:41.791Z,97478.50
2022-09-09T23:02:43.146Z,97480.31
2022-09-09T23:04:45.973Z,97477.09
2022-09-09T23:06:47.246Z,97483.97
2022-09-09T23:08:49.801Z,97489.22
2022-09-09T23:10:53.639Z,97494.38
2022-09-09T23:12:56.095Z,97488.41
2022-09-09T23:14:57.451Z,97485.84
2022-09-09T23:16:59.210Z,97487.63
2022-09-09T23:19:03.635Z,97480.91
2022-09-09T23:21:06.715Z,97483.56
2022-09-09T23:23:08.043Z,97495.59
2022-09-09T23:25:09.375Z,97489.63
2022-09-09T23:27:10.655Z,97482.06
2022-09-09T23:29:14.895Z,97481.28
2022-09-09T23:31:16.395Z,97487.34
2022-09-09T23:33:17.733Z,97489.94
2022-09-09T23:35:19.019Z,97488.22
2022-09-09T23:37:20.338Z,97485.69
2022-09-09T23:39:23.170Z,97495.06
2022-09-09T23:41:24.584Z,97483.19
2022-09-09T23:43:26.702Z,97491.72
2022-09-09T23:45:28.613Z,97481.56
2022-09-09T23:47:29.899Z,97483.34
2022-09-09T23:49:31.214Z,97485.94
2022-09-09T23:51:33.720Z,97493.69
2022-09-09T23:53:35.609Z,97478.38
2022-09-09T23:55:36.885Z,97474.97
2022-09-09T23:57:38.167Z,97472.50
2022-09-09T23:59:39.479Z,97470.81
